Weather at Texarkana Regional Webb Field

Public forecast

Using degrees Fahrenheit for public forecast. Weather courtesy of forecast.io.

Current aviation weather report (METAR) for Texarkana Regional Webb Field

Retrieved 2021/09/25 20:53 UTC (1 hour ago):

KTXK 252053Z VRB05KT 10SM CLR 31/11 A3006 RMK AO2 SLP174 T03110106 56025

Aviation forecast (TAF) for Texarkana Regional Webb Field

Retrieved 2021/09/25 18:42 UTC (3 hours ago):

TAF KTXK 251740Z 2518/2618 24006KT P6SM SKC FM252100 31004KT P6SM SKC FM260100 VRB03KT P6SM SKC